sensor_id;sensor_type;location;lat;lon;timestamp;pressure;altitude;pressure_sealevel;temperature
13219;BMP180;6674;49.152;11.918;2023-06-14T00:01:10;95652.03;;;17.39
13219;BMP180;6674;49.152;11.918;2023-06-14T00:03:38;95648.16;;;17.31
13219;BMP180;6674;49.152;11.918;2023-06-14T00:06:05;95649.97;;;17.26
13219;BMP180;6674;49.152;11.918;2023-06-14T00:08:33;95657.53;;;17.23
13219;BMP180;6674;49.152;11.918;2023-06-14T00:11:00;95652.09;;;17.19
13219;BMP180;6674;49.152;11.918;2023-06-14T00:13:26;95663.00;;;17.16
13219;BMP180;6674;49.152;11.918;2023-06-14T00:15:53;95657.53;;;17.13
13219;BMP180;6674;49.152;11.918;2023-06-14T00:18:21;95659.38;;;17.07
13219;BMP180;6674;49.152;11.918;2023-06-14T00:20:49;95648.94;;;17.07
13219;BMP180;6674;49.152;11.918;2023-06-14T00:23:16;95645.81;;;17.05
13219;BMP180;6674;49.152;11.918;2023-06-14T00:25:44;95644.00;;;17.01
13219;BMP180;6674;49.152;11.918;2023-06-14T00:28:11;95656.00;;;17.02
13219;BMP180;6674;49.152;11.918;2023-06-14T00:30:37;95651.56;;;16.97
13219;BMP180;6674;49.152;11.918;2023-06-14T00:33:04;95643.75;;;16.92
13219;BMP180;6674;49.152;11.918;2023-06-14T00:35:30;95640.88;;;16.89
13219;BMP180;6674;49.152;11.918;2023-06-14T00:37:57;95643.75;;;16.83
13219;BMP180;6674;49.152;11.918;2023-06-14T00:40:24;95649.75;;;16.78
13219;BMP180;6674;49.152;11.918;2023-06-14T00:42:52;95643.22;;;16.76
13219;BMP180;6674;49.152;11.918;2023-06-14T00:45:19;95639.31;;;16.73
13219;BMP180;6674;49.152;11.918;2023-06-14T00:47:46;95638.53;;;16.68
13219;BMP180;6674;49.152;11.918;2023-06-14T00:50:13;95641.66;;;16.65
13219;BMP180;6674;49.152;11.918;2023-06-14T00:52:40;95640.09;;;16.64
13219;BMP180;6674;49.152;11.918;2023-06-14T00:55:08;95643.22;;;16.61
13219;BMP180;6674;49.152;11.918;2023-06-14T00:57:35;95638.25;;;16.59
13219;BMP180;6674;49.152;11.918;2023-06-14T01:00:05;95645.31;;;16.59
13219;BMP180;6674;49.152;11.918;2023-06-14T01:02:34;95650.25;;;16.55
13219;BMP180;6674;49.152;11.918;2023-06-14T01:05:01;95650.25;;;16.55
13219;BMP180;6674;49.152;11.918;2023-06-14T01:07:36;95646.31;;;16.53
13219;BMP180;6674;49.152;11.918;2023-06-14T01:10:17;95644.78;;;16.47
13219;BMP180;6674;49.152;11.918;2023-06-14T01:12:53;95646.06;;;16.40
13219;BMP180;6674;49.152;11.918;2023-06-14T01:15:23;95648.91;;;16.33
13219;BMP180;6674;49.152;11.918;2023-06-14T01:17:50;95647.88;;;16.29
13219;BMP180;6674;49.152;11.918;2023-06-14T01:20:19;95655.91;;;16.23
13219;BMP180;6674;49.152;11.918;2023-06-14T01:22:54;95650.69;;;16.18
13219;BMP180;6674;49.152;11.918;2023-06-14T01:25:21;95640.78;;;16.15
13219;BMP180;6674;49.152;11.918;2023-06-14T01:27:48;95647.50;;;16.11
13219;BMP180;6674;49.152;11.918;2023-06-14T01:30:17;95640.00;;;16.09
13219;BMP180;6674;49.152;11.918;2023-06-14T01:32:43;95642.56;;;16.04
13219;BMP180;6674;49.152;11.918;2023-06-14T01:35:11;95639.94;;;15.99
13219;BMP180;6674;49.152;11.918;2023-06-14T01:37:38;95642.00;;;15.97
13219;BMP180;6674;49.152;11.918;2023-06-14T01:40:08;95642.53;;;15.95
13219;BMP180;6674;49.152;11.918;2023-06-14T01:42:36;95637.84;;;15.87
13219;BMP180;6674;49.152;11.918;2023-06-14T01:45:05;95643.50;;;15.69
13219;BMP180;6674;49.152;11.918;2023-06-14T01:47:32;95641.16;;;15.72
13219;BMP180;6674;49.152;11.918;2023-06-14T01:50:00;95639.06;;;15.69
13219;BMP180;6674;49.152;11.918;2023-06-14T01:52:26;95641.13;;;15.67
13219;BMP180;6674;49.152;11.918;2023-06-14T01:54:53;95633.00;;;15.59
13219;BMP180;6674;49.152;11.918;2023-06-14T01:57:21;95643.41;;;15.54
13219;BMP180;6674;49.152;11.918;2023-06-14T01:59:48;95642.63;;;15.53
13219;BMP180;6674;49.152;11.918;2023-06-14T02:02:16;95643.94;;;15.56
13219;BMP180;6674;49.152;11.918;2023-06-14T02:04:42;95649.91;;;15.56
13219;BMP180;6674;49.152;11.918;2023-06-14T02:07:09;95639.28;;;15.58
13219;BMP180;6674;49.152;11.918;2023-06-14T02:09:36;95643.94;;;15.56
13219;BMP180;6674;49.152;11.918;2023-06-14T02:12:02;95643.94;;;15.56
13219;BMP180;6674;49.152;11.918;2023-06-14T02:14:30;95648.06;;;15.52
13219;BMP180;6674;49.152;11.918;2023-06-14T02:16:57;95638.69;;;15.46
13219;BMP180;6674;49.152;11.918;2023-06-14T02:19:24;95657.66;;;15.47
13219;BMP180;6674;49.152;11.918;2023-06-14T02:21:50;95637.59;;;15.37
13219;BMP180;6674;49.152;11.918;2023-06-14T02:24:17;95639.38;;;15.27
13219;BMP180;6674;49.152;11.918;2023-06-14T02:26:43;95647.91;;;15.22
13219;BMP180;6674;49.152;11.918;2023-06-14T02:29:10;95646.06;;;15.18
13219;BMP180;6674;49.152;11.918;2023-06-14T02:31:41;95650.41;;;15.12
13219;BMP180;6674;49.152;11.918;2023-06-14T02:34:08;95655.84;;;15.06
13219;BMP180;6674;49.152;11.918;2023-06-14T02:36:34;95652.41;;;15.01
13219;BMP180;6674;49.152;11.918;2023-06-14T02:39:07;95653.72;;;15.03
13219;BMP180;6674;49.152;11.918;2023-06-14T02:41:34;95646.94;;;15.02
13219;BMP180;6674;49.152;11.918;2023-06-14T02:44:01;95655.50;;;14.98
13219;BMP180;6674;49.152;11.918;2023-06-14T02:46:27;95651.84;;;14.94
13219;BMP180;6674;49.152;11.918;2023-06-14T02:48:55;95651.31;;;14.92
13219;BMP180;6674;49.152;11.918;2023-06-14T02:51:22;95647.41;;;14.89
13219;BMP180;6674;49.152;11.918;2023-06-14T02:53:48;95649.19;;;14.89
13219;BMP180;6674;49.152;11.918;2023-06-14T02:56:15;95653.38;;;14.90
13219;BMP180;6674;49.152;11.918;2023-06-14T02:58:44;95653.38;;;14.90
13219;BMP180;6674;49.152;11.918;2023-06-14T03:01:11;95646.59;;;14.89
13219;BMP180;6674;49.152;11.918;2023-06-14T03:03:38;95653.63;;;14.88
13219;BMP180;6674;49.152;11.918;2023-06-14T03:06:06;95645.56;;;14.85
13219;BMP180;6674;49.152;11.918;2023-06-14T03:08:33;95654.31;;;14.79
13219;BMP180;6674;49.152;11.918;2023-06-14T03:11:04;95647.25;;;14.74
13219;BMP180;6674;49.152;11.918;2023-06-14T03:13:31;95659.91;;;14.66
13219;BMP180;6674;49.152;11.918;2023-06-14T03:15:58;95657.84;;;14.68
13219;BMP180;6674;49.152;11.918;2023-06-14T03:18:27;95657.31;;;14.66
13219;BMP180;6674;49.152;11.918;2023-06-14T03:20:54;95661.16;;;14.59
13219;BMP180;6674;49.152;11.918;2023-06-14T03:23:23;95663.47;;;14.55
13219;BMP180;6674;49.152;11.918;2023-06-14T03:25:50;95669.66;;;14.49
13219;BMP180;6674;49.152;11.918;2023-06-14T03:28:17;95675.38;;;14.51
13219;BMP180;6674;49.152;11.918;2023-06-14T03:30:44;95679.09;;;14.60
13219;BMP180;6674;49.152;11.918;2023-06-14T03:33:10;95681.19;;;14.63
13219;BMP180;6674;49.152;11.918;2023-06-14T03:35:39;95678.81;;;14.62
13219;BMP180;6674;49.152;11.918;2023-06-14T03:38:06;95676.03;;;14.68
13219;BMP180;6674;49.152;11.918;2023-06-14T03:40:34;95677.59;;;14.69
13219;BMP180;6674;49.152;11.918;2023-06-14T03:43:01;95673.47;;;14.73
13219;BMP180;6674;49.152;11.918;2023-06-14T03:45:27;95681.56;;;14.76
13219;BMP180;6674;49.152;11.918;2023-06-14T03:47:54;95681.91;;;14.85
13219;BMP180;6674;49.152;11.918;2023-06-14T03:50:22;95674.63;;;14.87
13219;BMP180;6674;49.152;11.918;2023-06-14T03:52:48;95686.00;;;14.81
13219;BMP180;6674;49.152;11.918;2023-06-14T03:55:15;95688.56;;;14.76
13219;BMP180;6674;49.152;11.918;2023-06-14T03:57:43;95690.06;;;14.67
13219;BMP180;6674;49.152;11.918;2023-06-14T04:00:11;95694.91;;;14.59
13219;BMP180;6674;49.152;11.918;2023-06-14T04:02:38;95693.63;;;14.61
13219;BMP180;6674;49.152;11.918;2023-06-14T04:05:05;95691.59;;;14.68
13219;BMP180;6674;49.152;11.918;2023-06-14T04:07:34;95701.00;;;14.74
13219;BMP180;6674;49.152;11.918;2023-06-14T04:10:06;95700.44;;;14.67
13219;BMP180;6674;49.152;11.918;2023-06-14T04:12:33;95697.84;;;14.67
13219;BMP180;6674;49.152;11.918;2023-06-14T04:15:02;95696.03;;;14.67
13219;BMP180;6674;49.152;11.918;2023-06-14T04:17:29;95702.09;;;14.78
13219;BMP180;6674;49.152;11.918;2023-06-14T04:19:55;95697.97;;;14.82
13219;BMP180;6674;49.152;11.918;2023-06-14T04:22:23;95708.16;;;14.88
13219;BMP180;6674;49.152;11.918;2023-06-14T04:24:54;95700.66;;;14.92
13219;BMP180;6674;49.152;11.918;2023-06-14T04:27:21;95705.88;;;14.97
13219;BMP180;6674;49.152;11.918;2023-06-14T04:29:50;95715.78;;;15.00
13219;BMP180;6674;49.152;11.918;2023-06-14T04:32:23;95715.03;;;15.04
13219;BMP180;6674;49.152;11.918;2023-06-14T04:34:51;95713.72;;;15.02
13219;BMP180;6674;49.152;11.918;2023-06-14T04:37:19;95707.25;;;15.04
13219;BMP180;6674;49.152;11.918;2023-06-14T04:39:46;95709.84;;;15.04
13219;BMP180;6674;49.152;11.918;2023-06-14T04:42:12;95712.44;;;15.04
13219;BMP180;6674;49.152;11.918;2023-06-14T04:44:40;95720.47;;;15.03
13219;BMP180;6674;49.152;11.918;2023-06-14T04:47:07;95722.59;;;15.06
13219;BMP180;6674;49.152;11.918;2023-06-14T04:49:35;95714.81;;;15.06
13219;BMP180;6674;49.152;11.918;2023-06-14T04:52:02;95720.56;;;15.12
13219;BMP180;6674;49.152;11.918;2023-06-14T04:54:28;95718.28;;;15.16
13219;BMP180;6674;49.152;11.918;2023-06-14T04:56:56;95724.25;;;15.16
13219;BMP180;6674;49.152;11.918;2023-06-14T04:59:23;95725.56;;;15.19
13219;BMP180;6674;49.152;11.918;2023-06-14T05:01:50;95732.84;;;15.17
13219;BMP180;6674;49.152;11.918;2023-06-14T05:04:17;95735.47;;;15.22
13219;BMP180;6674;49.152;11.918;2023-06-14T05:06:45;95724.25;;;15.16
13219;BMP180;6674;49.152;11.918;2023-06-14T05:09:13;95722.22;;;15.18
13219;BMP180;6674;49.152;11.918;2023-06-14T05:11:41;95725.63;;;15.24
13219;BMP180;6674;49.152;11.918;2023-06-14T05:14:09;95731.09;;;15.27
13219;BMP180;6674;49.152;11.918;2023-06-14T05:16:35;95725.66;;;15.29
13219;BMP180;6674;49.152;11.918;2023-06-14T05:19:02;95728.41;;;15.17
13219;BMP180;6674;49.152;11.918;2023-06-14T05:21:29;95731.47;;;15.14
13219;BMP180;6674;49.152;11.918;2023-06-14T05:23:58;95735.03;;;15.30
13219;BMP180;6674;49.152;11.918;2023-06-14T05:26:25;95735.34;;;15.38
13219;BMP180;6674;49.152;11.918;2023-06-14T05:28:54;95738.47;;;15.40
13219;BMP180;6674;49.152;11.918;2023-06-14T05:31:22;95743.47;;;15.52
13219;BMP180;6674;49.152;11.918;2023-06-14T05:33:48;95737.00;;;15.59
13219;BMP180;6674;49.152;11.918;2023-06-14T05:36:15;95750.63;;;15.71
13219;BMP180;6674;49.152;11.918;2023-06-14T05:38:42;95750.66;;;15.76
13219;BMP180;6674;49.152;11.918;2023-06-14T05:41:09;95750.66;;;15.81
13219;BMP180;6674;49.152;11.918;2023-06-14T05:43:36;95747.59;;;15.89
13219;BMP180;6674;49.152;11.918;2023-06-14T05:46:03;95747.13;;;15.97
13219;BMP180;6674;49.152;11.918;2023-06-14T05:48:30;95752.84;;;15.98
13219;BMP180;6674;49.152;11.918;2023-06-14T05:50:57;95751.59;;;16.11
13219;BMP180;6674;49.152;11.918;2023-06-14T05:53:23;95761.72;;;16.07
13219;BMP180;6674;49.152;11.918;2023-06-14T05:55:50;95759.69;;;16.14
13219;BMP180;6674;49.152;11.918;2023-06-14T05:58:21;95759.22;;;16.22
13219;BMP180;6674;49.152;11.918;2023-06-14T06:00:48;95750.91;;;16.25
13219;BMP180;6674;49.152;11.918;2023-06-14T06:03:15;95757.44;;;16.28
13219;BMP180;6674;49.152;11.918;2023-06-14T06:05:41;95762.41;;;16.34
13219;BMP180;6674;49.152;11.918;2023-06-14T06:08:08;95761.34;;;16.40
13219;BMP180;6674;49.152;11.918;2023-06-14T06:10:35;95763.47;;;16.48
13219;BMP180;6674;49.152;11.918;2023-06-14T06:13:01;95766.06;;;16.48
13219;BMP180;6674;49.152;11.918;2023-06-14T06:15:29;95770.28;;;16.59
13219;BMP180;6674;49.152;11.918;2023-06-14T06:17:56;95769.03;;;16.71
13219;BMP180;6674;49.152;11.918;2023-06-14T06:20:23;95765.13;;;16.79
13219;BMP180;6674;49.152;11.918;2023-06-14T06:22:53;95763.59;;;16.87
13219;BMP180;6674;49.152;11.918;2023-06-14T06:25:20;95765.41;;;16.92
13219;BMP180;6674;49.152;11.918;2023-06-14T06:27:47;95762.28;;;17.00
13219;BMP180;6674;49.152;11.918;2023-06-14T06:30:14;95766.22;;;17.02
13219;BMP180;6674;49.152;11.918;2023-06-14T06:32:42;95770.41;;;17.08
13219;BMP180;6674;49.152;11.918;2023-06-14T06:35:08;95772.22;;;17.23
13219;BMP180;6674;49.152;11.918;2023-06-14T06:37:36;95784.22;;;17.33
13219;BMP180;6674;49.152;11.918;2023-06-14T06:40:03;95783.97;;;17.40
13219;BMP180;6674;49.152;11.918;2023-06-14T06:42:31;95775.63;;;17.53
13219;BMP180;6674;49.152;11.918;2023-06-14T06:44:58;95775.63;;;17.58
13219;BMP180;6674;49.152;11.918;2023-06-14T06:47:24;95786.56;;;17.65
13219;BMP180;6674;49.152;11.918;2023-06-14T06:49:52;95786.03;;;17.77
13219;BMP180;6674;49.152;11.918;2023-06-14T06:52:19;95786.53;;;17.84
13219;BMP180;6674;49.152;11.918;2023-06-14T06:54:46;95790.69;;;17.95
13219;BMP180;6674;49.152;11.918;2023-06-14T06:57:12;95785.97;;;18.07
13219;BMP180;6674;49.152;11.918;2023-06-14T06:59:39;95794.06;;;18.20
13219;BMP180;6674;49.152;11.918;2023-06-14T07:02:06;95788.00;;;18.35
13219;BMP180;6674;49.152;11.918;2023-06-14T07:04:32;95792.38;;;18.49
13219;BMP180;6674;49.152;11.918;2023-06-14T07:07:00;95792.84;;;18.61
13219;BMP180;6674;49.152;11.918;2023-06-14T07:09:27;95802.44;;;18.80
13219;BMP180;6674;49.152;11.918;2023-06-14T07:11:54;95799.72;;;18.95
13219;BMP180;6674;49.152;11.918;2023-06-14T07:14:21;95798.91;;;19.04
13219;BMP180;6674;49.152;11.918;2023-06-14T07:16:48;95801.28;;;19.01
13219;BMP180;6674;49.152;11.918;2023-06-14T07:19:15;95799.69;;;19.05
13219;BMP180;6674;49.152;11.918;2023-06-14T07:21:42;95801.25;;;19.06
13219;BMP180;6674;49.152;11.918;2023-06-14T07:24:10;95802.25;;;19.15
13219;BMP180;6674;49.152;11.918;2023-06-14T07:26:37;95803.28;;;19.14
13219;BMP180;6674;49.152;11.918;2023-06-14T07:29:03;95803.53;;;19.17
13219;BMP180;6674;49.152;11.918;2023-06-14T07:31:30;95803.69;;;19.36
13219;BMP180;6674;49.152;11.918;2023-06-14T07:33:56;95806.97;;;19.46
13219;BMP180;6674;49.152;11.918;2023-06-14T07:36:23;95819.72;;;19.57
13219;BMP180;6674;49.152;11.918;2023-06-14T07:38:50;95814.38;;;19.67
13219;BMP180;6674;49.152;11.918;2023-06-14T07:41:18;95813.34;;;19.68
13219;BMP180;6674;49.152;11.918;2023-06-14T07:43:44;95807.53;;;19.76
13219;BMP180;6674;49.152;11.918;2023-06-14T07:46:11;95815.81;;;19.88
13219;BMP180;6674;49.152;11.918;2023-06-14T07:48:38;95813.03;;;20.03
13219;BMP180;6674;49.152;11.918;2023-06-14T07:51:04;95817.41;;;20.12
13219;BMP180;6674;49.152;11.918;2023-06-14T07:53:31;95818.63;;;20.20
13219;BMP180;6674;49.152;11.918;2023-06-14T07:55:58;95816.31;;;20.41
13219;BMP180;6674;49.152;11.918;2023-06-14T07:58:26;95813.56;;;20.51
13219;BMP180;6674;49.152;11.918;2023-06-14T08:00:53;95812.47;;;20.57
13219;BMP180;6674;49.152;11.918;2023-06-14T08:03:20;95820.16;;;20.72
13219;BMP180;6674;49.152;11.918;2023-06-14T08:05:47;95815.91;;;20.76
13219;BMP180;6674;49.152;11.918;2023-06-14T08:08:14;95818.53;;;20.76
13219;BMP180;6674;49.152;11.918;2023-06-14T08:10:41;95812.94;;;20.82
13219;BMP180;6674;49.152;11.918;2023-06-14T08:13:08;95830.66;;;20.90
13219;BMP180;6674;49.152;11.918;2023-06-14T08:15:36;95820.41;;;20.94
13219;BMP180;6674;49.152;11.918;2023-06-14T08:18:03;95822.66;;;21.19
13219;BMP180;6674;49.152;11.918;2023-06-14T08:20:30;95817.16;;;21.38
13219;BMP180;6674;49.152;11.918;2023-06-14T08:22:57;95821.63;;;21.56
13219;BMP180;6674;49.152;11.918;2023-06-14T08:25:24;95827.03;;;21.78
13219;BMP180;6674;49.152;11.918;2023-06-14T08:27:51;95820.28;;;21.90
13219;BMP180;6674;49.152;11.918;2023-06-14T08:30:17;95811.13;;;22.01
13219;BMP180;6674;49.152;11.918;2023-06-14T08:32:46;95818.06;;;22.10
13219;BMP180;6674;49.152;11.918;2023-06-14T08:35:12;95825.69;;;22.25
13219;BMP180;6674;49.152;11.918;2023-06-14T08:37:39;95825.78;;;22.34
13219;BMP180;6674;49.152;11.918;2023-06-14T08:40:16;95825.63;;;22.57
13219;BMP180;6674;49.152;11.918;2023-06-14T08:42:44;95826.00;;;22.64
13219;BMP180;6674;49.152;11.918;2023-06-14T08:45:12;95821.72;;;22.68
13219;BMP180;6674;49.152;11.918;2023-06-14T08:47:39;95828.72;;;22.59
13219;BMP180;6674;49.152;11.918;2023-06-14T08:50:08;95832.63;;;22.75
13219;BMP180;6674;49.152;11.918;2023-06-14T08:52:38;95821.13;;;22.98
13219;BMP180;6674;49.152;11.918;2023-06-14T08:55:06;95817.81;;;22.92
13219;BMP180;6674;49.152;11.918;2023-06-14T08:57:35;95824.66;;;22.93
13219;BMP180;6674;49.152;11.918;2023-06-14T09:00:04;95822.31;;;22.92
13219;BMP180;6674;49.152;11.918;2023-06-14T09:02:37;95826.19;;;23.07
13219;BMP180;6674;49.152;11.918;2023-06-14T09:05:04;95821.28;;;23.14
13219;BMP180;6674;49.152;11.918;2023-06-14T09:07:32;95826.91;;;23.35
13219;BMP180;6674;49.152;11.918;2023-06-14T09:10:07;95824.28;;;23.56
13219;BMP180;6674;49.152;11.918;2023-06-14T09:12:34;95824.03;;;23.44
13219;BMP180;6674;49.152;11.918;2023-06-14T09:15:01;95823.91;;;23.49
13219;BMP180;6674;49.152;11.918;2023-06-14T09:17:32;95836.16;;;23.54
13219;BMP180;6674;49.152;11.918;2023-06-14T09:19:59;95834.28;;;23.33
13219;BMP180;6674;49.152;11.918;2023-06-14T09:22:29;95837.78;;;23.41
13219;BMP180;6674;49.152;11.918;2023-06-14T09:24:57;95837.88;;;23.72
13219;BMP180;6674;49.152;11.918;2023-06-14T09:27:27;95835.25;;;23.72
13219;BMP180;6674;49.152;11.918;2023-06-14T09:29:54;95825.84;;;23.57
13219;BMP180;6674;49.152;11.918;2023-06-14T09:32:21;95830.94;;;23.76
13219;BMP180;6674;49.152;11.918;2023-06-14T09:34:48;95834.06;;;23.78
13219;BMP180;6674;49.152;11.918;2023-06-14T09:37:27;95833.41;;;23.72
13219;BMP180;6674;49.152;11.918;2023-06-14T09:39:53;95824.22;;;23.48
13219;BMP180;6674;49.152;11.918;2023-06-14T09:42:21;95833.41;;;23.59
13219;BMP180;6674;49.152;11.918;2023-06-14T09:44:52;95835.28;;;24.02
13219;BMP180;6674;49.152;11.918;2023-06-14T09:47:20;95833.78;;;24.09
13219;BMP180;6674;49.152;11.918;2023-06-14T09:49:47;95844.34;;;24.09
13219;BMP180;6674;49.152;11.918;2023-06-14T09:52:15;95844.81;;;24.11
13219;BMP180;6674;49.152;11.918;2023-06-14T09:54:44;95834.41;;;24.06
13219;BMP180;6674;49.152;11.918;2023-06-14T09:57:13;95836.66;;;23.99
13219;BMP180;6674;49.152;11.918;2023-06-14T09:59:43;95831.75;;;23.84
13219;BMP180;6674;49.152;11.918;2023-06-14T10:02:14;95834.97;;;23.60
13219;BMP180;6674;49.152;11.918;2023-06-14T10:04:46;95835.09;;;23.33
13219;BMP180;6674;49.152;11.918;2023-06-14T10:07:19;95830.78;;;23.37
13219;BMP180;6674;49.152;11.918;2023-06-14T10:09:47;95828.84;;;23.29
13219;BMP180;6674;49.152;11.918;2023-06-14T10:12:16;95830.13;;;23.32
13219;BMP180;6674;49.152;11.918;2023-06-14T10:14:48;95824.56;;;23.33
13219;BMP180;6674;49.152;11.918;2023-06-14T10:17:22;95821.66;;;23.21
13219;BMP180;6674;49.152;11.918;2023-06-14T10:19:57;95824.34;;;23.30
13219;BMP180;6674;49.152;11.918;2023-06-14T10:22:34;95826.56;;;23.36
13219;BMP180;6674;49.152;11.918;2023-06-14T10:25:02;95830.72;;;23.29
13219;BMP180;6674;49.152;11.918;2023-06-14T10:27:33;95825.78;;;23.14
13219;BMP180;6674;49.152;11.918;2023-06-14T10:30:07;95823.22;;;23.22
13219;BMP180;6674;49.152;11.918;2023-06-14T10:32:34;95827.66;;;23.35
13219;BMP180;6674;49.152;11.918;2023-06-14T10:35:04;95823.13;;;23.49
13219;BMP180;6674;49.152;11.918;2023-06-14T10:37:31;95827.03;;;23.51
13219;BMP180;6674;49.152;11.918;2023-06-14T10:39:58;95829.31;;;23.44
13219;BMP180;6674;49.152;11.918;2023-06-14T10:42:28;95837.84;;;23.28
13219;BMP180;6674;49.152;11.918;2023-06-14T10:44:57;95824.78;;;23.23
13219;BMP180;6674;49.152;11.918;2023-06-14T10:47:28;95832.16;;;23.21
13219;BMP180;6674;49.152;11.918;2023-06-14T10:49:55;95828.69;;;23.12
13219;BMP180;6674;49.152;11.918;2023-06-14T10:52:26;95826.38;;;23.11
13219;BMP180;6674;49.152;11.918;2023-06-14T10:55:08;95826.94;;;23.08
13219;BMP180;6674;49.152;11.918;2023-06-14T10:57:37;95827.72;;;23.08
13219;BMP180;6674;49.152;11.918;2023-06-14T11:00:05;95829.69;;;22.90
13219;BMP180;6674;49.152;11.918;2023-06-14T11:02:51;95828.91;;;22.76
13219;BMP180;6674;49.152;11.918;2023-06-14T11:05:24;95829.41;;;23.04
13219;BMP180;6674;49.152;11.918;2023-06-14T11:08:02;95821.88;;;23.11
13219;BMP180;6674;49.152;11.918;2023-06-14T11:10:36;95826.31;;;23.24
13219;BMP180;6674;49.152;11.918;2023-06-14T11:13:03;95820.47;;;23.49
13219;BMP180;6674;49.152;11.918;2023-06-14T11:15:30;95823.97;;;23.58
13219;BMP180;6674;49.152;11.918;2023-06-14T11:18:00;95818.91;;;23.83
13219;BMP180;6674;49.152;11.918;2023-06-14T11:20:30;95819.09;;;24.17
13219;BMP180;6674;49.152;11.918;2023-06-14T11:22:57;95808.56;;;24.47
13219;BMP180;6674;49.152;11.918;2023-06-14T11:25:25;95811.38;;;24.59
13219;BMP180;6674;49.152;11.918;2023-06-14T11:27:54;95817.44;;;24.59
13219;BMP180;6674;49.152;11.918;2023-06-14T11:30:21;95812.53;;;24.36
13219;BMP180;6674;49.152;11.918;2023-06-14T11:32:49;95820.00;;;24.34
13219;BMP180;6674;49.152;11.918;2023-06-14T11:35:18;95811.72;;;24.66
13219;BMP180;6674;49.152;11.918;2023-06-14T11:37:45;95814.78;;;24.98
13219;BMP180;6674;49.152;11.918;2023-06-14T11:40:13;95811.38;;;25.14
13219;BMP180;6674;49.152;11.918;2023-06-14T11:42:40;95817.91;;;25.50
13219;BMP180;6674;49.152;11.918;2023-06-14T11:45:08;95815.44;;;25.54
13219;BMP180;6674;49.152;11.918;2023-06-14T11:47:36;95810.00;;;25.75
13219;BMP180;6674;49.152;11.918;2023-06-14T11:50:04;95804.00;;;26.12
13219;BMP180;6674;49.152;11.918;2023-06-14T11:52:33;95808.63;;;26.40
13219;BMP180;6674;49.152;11.918;2023-06-14T11:54:59;95813.16;;;26.68
13219;BMP180;6674;49.152;11.918;2023-06-14T11:57:30;95808.91;;;26.47
13219;BMP180;6674;49.152;11.918;2023-06-14T11:59:56;95805.03;;;26.36
13219;BMP180;6674;49.152;11.918;2023-06-14T12:02:23;95804.84;;;26.04
13219;BMP180;6674;49.152;11.918;2023-06-14T12:04:50;95805.50;;;25.51
13219;BMP180;6674;49.152;11.918;2023-06-14T12:07:18;95802.53;;;25.35
13219;BMP180;6674;49.152;11.918;2023-06-14T12:10:08;95796.63;;;25.47
13219;BMP180;6674;49.152;11.918;2023-06-14T12:12:37;95806.28;;;25.43
13219;BMP180;6674;49.152;11.918;2023-06-14T12:15:04;95805.19;;;25.52
13219;BMP180;6674;49.152;11.918;2023-06-14T12:17:32;95800.53;;;25.66
13219;BMP180;6674;49.152;11.918;2023-06-14T12:20:05;95796.31;;;25.90
13219;BMP180;6674;49.152;11.918;2023-06-14T12:22:36;95796.72;;;26.01
13219;BMP180;6674;49.152;11.918;2023-06-14T12:25:03;95794.00;;;25.80
13219;BMP180;6674;49.152;11.918;2023-06-14T12:27:31;95793.81;;;25.85
13219;BMP180;6674;49.152;11.918;2023-06-14T12:29:59;95788.50;;;26.02
13219;BMP180;6674;49.152;11.918;2023-06-14T12:32:26;95790.97;;;26.07
13219;BMP180;6674;49.152;11.918;2023-06-14T12:34:52;95801.25;;;26.00
13219;BMP180;6674;49.152;11.918;2023-06-14T12:37:19;95801.41;;;25.95
13219;BMP180;6674;49.152;11.918;2023-06-14T12:39:45;95794.59;;;25.94
13219;BMP180;6674;49.152;11.918;2023-06-14T12:42:12;95798.50;;;25.88
13219;BMP180;6674;49.152;11.918;2023-06-14T12:44:41;95793.50;;;25.95
13219;BMP180;6674;49.152;11.918;2023-06-14T12:47:08;95790.78;;;26.12
13219;BMP180;6674;49.152;11.918;2023-06-14T12:49:34;95789.03;;;26.24
13219;BMP180;6674;49.152;11.918;2023-06-14T12:52:01;95782.31;;;26.44
13219;BMP180;6674;49.152;11.918;2023-06-14T12:54:27;95789.72;;;26.58
13219;BMP180;6674;49.152;11.918;2023-06-14T12:56:54;95798.03;;;26.77
13219;BMP180;6674;49.152;11.918;2023-06-14T12:59:21;95784.47;;;26.79
13219;BMP180;6674;49.152;11.918;2023-06-14T13:01:50;95802.38;;;26.73
13219;BMP180;6674;49.152;11.918;2023-06-14T13:04:18;95800.75;;;26.60
13219;BMP180;6674;49.152;11.918;2023-06-14T13:06:45;95798.84;;;26.69
13219;BMP180;6674;49.152;11.918;2023-06-14T13:09:12;95796.97;;;26.70
13219;BMP180;6674;49.152;11.918;2023-06-14T13:11:40;95797.59;;;26.38
13219;BMP180;6674;49.152;11.918;2023-06-14T13:14:11;95794.06;;;26.26
13219;BMP180;6674;49.152;11.918;2023-06-14T13:16:37;95791.88;;;26.28
13219;BMP180;6674;49.152;11.918;2023-06-14T13:19:05;95793.78;;;26.02
13219;BMP180;6674;49.152;11.918;2023-06-14T13:21:32;95794.09;;;26.09
13219;BMP180;6674;49.152;11.918;2023-06-14T13:23:58;95794.28;;;26.49
13219;BMP180;6674;49.152;11.918;2023-06-14T13:26:25;95791.84;;;26.65
13219;BMP180;6674;49.152;11.918;2023-06-14T13:28:52;95797.41;;;26.72
13219;BMP180;6674;49.152;11.918;2023-06-14T13:31:19;95793.34;;;26.46
13219;BMP180;6674;49.152;11.918;2023-06-14T13:33:45;95787.19;;;25.62
13219;BMP180;6674;49.152;11.918;2023-06-14T13:36:13;95798.16;;;25.98
13219;BMP180;6674;49.152;11.918;2023-06-14T13:38:40;95791.88;;;26.28
13219;BMP180;6674;49.152;11.918;2023-06-14T13:41:07;95786.84;;;26.43
13219;BMP180;6674;49.152;11.918;2023-06-14T13:43:33;95790.13;;;26.23
13219;BMP180;6674;49.152;11.918;2023-06-14T13:46:00;95788.91;;;26.29
13219;BMP180;6674;49.152;11.918;2023-06-14T13:48:26;95789.50;;;26.35
13219;BMP180;6674;49.152;11.918;2023-06-14T13:50:53;95786.97;;;26.01
13219;BMP180;6674;49.152;11.918;2023-06-14T13:53:21;95781.34;;;26.03
13219;BMP180;6674;49.152;11.918;2023-06-14T13:55:47;95789.13;;;26.07
13219;BMP180;6674;49.152;11.918;2023-06-14T13:58:14;95795.16;;;26.08
13219;BMP180;6674;49.152;11.918;2023-06-14T14:00:41;95788.47;;;26.19
13219;BMP180;6674;49.152;11.918;2023-06-14T14:03:07;95786.13;;;26.17
13219;BMP180;6674;49.152;11.918;2023-06-14T14:05:34;95782.34;;;25.81
13219;BMP180;6674;49.152;11.918;2023-06-14T14:08:00;95783.13;;;25.73
13219;BMP180;6674;49.152;11.918;2023-06-14T14:10:29;95783.41;;;25.89
13219;BMP180;6674;49.152;11.918;2023-06-14T14:12:56;95782.41;;;26.10